Time,TemperatureF,DewpointF,PressureIn,WindDirection,WindDirectionDegrees,WindSpeedMPH,WindSpeedGustMPH,Humidity,HourlyPrecipIn,Conditions,Clouds,dailyrainin,SoftwareType,DateUTC
2013-01-14 00:00:00,63.8,58.5,30.08,SSW,210,1.0,4.0,83,0.00,,BKN250,0.00,VWS V14.01,2013-01-14 05:00:00,
2013-01-14 00:05:00,63.8,58.5,30.08,East,98,0.0,2.0,83,0.00,,BKN250,0.00,VWS V14.01,2013-01-14 05:05:00,
2013-01-14 00:10:00,63.7,58.8,30.08,WSW,243,2.0,4.0,84,0.00,,BKN250,0.00,VWS V14.01,2013-01-14 05:10:00,
2013-01-14 00:15:00,63.8,58.9,30.08,SSE,158,1.0,2.0,84,0.00,,BKN250,0.00,VWS V14.01,2013-01-14 05:15:00,
2013-01-14 00:20:00,63.9,59.0,30.07,South,188,0.0,4.0,84,0.00,,BKN250,0.00,VWS V14.01,2013-01-14 05:20:00,
2013-01-14 00:25:00,63.9,59.0,30.08,West,276,0.0,3.0,84,0.00,,BKN250,0.00,VWS V14.01,2013-01-14 05:25:00,
2013-01-14 00:30:00,64.0,59.1,30.08,WSW,247,1.0,4.0,84,0.00,,BKN250,0.00,VWS V14.01,2013-01-14 05:30:00,
2013-01-14 00:35:00,63.9,59.0,30.08,WSW,240,0.0,2.0,84,0.00,,BKN250,0.00,VWS V14.01,2013-01-14 05:35:00,
2013-01-14 00:40:00,63.9,59.0,30.09,SSW,210,0.0,2.0,84,0.00,,BKN250,0.00,VWS V14.01,2013-01-14 05:40:00,
2013-01-14 00:45:00,63.9,59.0,30.08,SW,219,1.0,2.0,84,0.00,,BKN250,0.00,VWS V14.01,2013-01-14 05:45:00,
2013-01-14 00:50:00,63.9,59.3,30.08,SSE,158,0.0,2.0,85,0.00,,BKN250,0.00,VWS V14.01,2013-01-14 05:50:00,
2013-01-14 00:55:00,63.9,59.0,30.08,SSW,205,1.0,1.0,84,0.00,,BKN250,0.00,VWS V14.01,2013-01-14 05:55:00,
2013-01-14 01:00:00,64.0,59.1,30.08,SE,143,0.0,5.0,84,0.00,,BKN250,0.00,VWS V14.01,2013-01-14 06:00:00,
2013-01-14 01:10:00,64.1,59.2,30.09,SW,232,2.0,3.0,84,0.00,,BKN250,0.00,VWS V14.01,2013-01-14 06:10:00,
2013-01-14 01:15:00,64.2,59.3,30.08,SW,217,1.0,4.0,84,0.00,,BKN250,0.00,VWS V14.01,2013-01-14 06:15:00,
2013-01-14 01:20:00,64.2,59.3,30.08,SE,127,2.0,4.0,84,0.00,,BKN250,0.00,VWS V14.01,2013-01-14 06:20:00,
2013-01-14 01:25:00,64.1,59.2,30.08,SE,142,1.0,4.0,84,0.00,,BKN250,0.00,VWS V14.01,2013-01-14 06:25:00,
2013-01-14 01:30:00,64.0,59.1,30.08,SSE,149,0.0,3.0,84,0.00,,BKN250,0.00,VWS V14.01,2013-01-14 06:30:00,
2013-01-14 01:35:00,63.9,59.0,30.08,South,170,0.0,4.0,84,0.00,,BKN250,0.00,VWS V14.01,2013-01-14 06:35:00,
2013-01-14 01:40:00,63.8,58.9,30.09,WSW,249,0.0,1.0,84,0.00,,BKN250,0.00,VWS V14.01,2013-01-14 06:40:00,
2013-01-14 01:45:00,63.7,59.1,30.09,SSE,162,1.0,3.0,85,0.00,,BKN250,0.00,VWS V14.01,2013-01-14 06:45:00,
2013-01-14 01:50:00,63.6,59.0,30.09,SSW,205,0.0,2.0,85,0.00,,BKN250,0.00,VWS V14.01,2013-01-14 06:50:00,
2013-01-14 01:55:00,63.5,58.9,30.09,WSW,257,0.0,3.0,85,0.00,,BKN250,0.00,VWS V14.01,2013-01-14 06:55:00,
2013-01-14 02:00:00,63.4,58.8,30.09,South,174,0.0,2.0,85,0.00,,BKN250,0.00,VWS V14.01,2013-01-14 07:00:00,
2013-01-14 02:10:00,63.2,58.6,30.10,SSE,152,0.0,2.0,85,0.00,,BKN250,0.00,VWS V14.01,2013-01-14 07:10:00,
2013-01-14 02:15:00,63.1,58.8,30.09,ESE,122,2.0,2.0,86,0.00,,BKN250,0.00,VWS V14.01,2013-01-14 07:15:00,
2013-01-14 02:20:00,63.0,58.8,30.10,South,190,0.0,2.0,86,0.00,,BKN250,0.00,VWS V14.01,2013-01-14 07:20:00,
2013-01-14 02:25:00,62.8,58.6,30.10,SE,145,0.0,1.0,86,0.00,,BKN250,0.00,VWS V14.01,2013-01-14 07:25:00,
2013-01-14 02:30:00,62.7,58.5,30.10,SSE,151,0.0,1.0,86,0.00,,BKN250,0.00,VWS V14.01,2013-01-14 07:30:00,
2013-01-14 02:35:00,62.7,58.5,30.10,ESE,114,0.0,1.0,86,0.00,,BKN250,0.00,VWS V14.01,2013-01-14 07:35:00,
2013-01-14 02:40:00,62.5,58.6,30.10,ESE,114,0.0,1.0,87,0.00,,BKN250,0.00,VWS V14.01,2013-01-14 07:40:00,
2013-01-14 02:45:00,62.3,58.4,30.10,ESE,117,1.0,1.0,87,0.00,,BKN250,0.00,VWS V14.01,2013-01-14 07:45:00,
2013-01-14 02:50:00,62.1,58.2,30.10,SE,127,0.0,1.0,87,0.00,,BKN250,0.00,VWS V14.01,2013-01-14 07:50:00,
2013-01-14 02:55:00,62.0,58.1,30.10,South,171,0.0,1.0,87,0.00,,BKN250,0.00,VWS V14.01,2013-01-14 07:55:00,
2013-01-14 03:00:00,61.8,58.2,30.10,SSE,160,0.0,0.0,88,0.00,,BKN250,0.00,VWS V14.01,2013-01-14 08:00:00,
2013-01-14 03:10:00,61.4,58.1,30.10,ESE,114,1.0,3.0,89,0.00,,BKN250,0.00,VWS V14.01,2013-01-14 08:10:00,
2013-01-14 03:15:00,61.3,58.0,30.10,SE,134,0.0,1.0,89,0.00,,BKN250,0.00,VWS V14.01,2013-01-14 08:15:00,
2013-01-14 03:20:00,61.2,57.9,30.10,SSE,150,0.0,1.0,89,0.00,,BKN250,0.00,VWS V14.01,2013-01-14 08:20:00,
2013-01-14 03:25:00,61.1,57.8,30.10,SSE,160,0.0,2.0,89,0.00,,BKN250,0.00,VWS V14.01,2013-01-14 08:25:00,
2013-01-14 03:30:00,61.2,57.9,30.10,WSW,257,1.0,1.0,89,0.00,,BKN250,0.00,VWS V14.01,2013-01-14 08:30:00,
2013-01-14 03:35:00,61.1,57.8,30.10,WSW,248,0.0,1.0,89,0.00,,BKN250,0.00,VWS V14.01,2013-01-14 08:35:00,
2013-01-14 03:40:00,60.8,57.2,30.10,WSW,248,0.0,0.0,88,0.00,,BKN250,0.00,VWS V14.01,2013-01-14 08:40:00,
2013-01-14 03:45:00,60.3,56.7,30.10,WSW,248,0.0,0.0,88,0.00,,BKN250,0.00,VWS V14.01,2013-01-14 08:45:00,
2013-01-14 03:55:00,59.3,56.1,30.10,WSW,247,0.0,0.0,89,0.00,,BKN250,0.00,VWS V14.01,2013-01-14 08:55:00,
2013-01-14 04:00:00,58.6,56.0,30.10,WSW,248,0.0,0.0,91,0.00,,BKN250,0.00,VWS V14.01,2013-01-14 09:00:00,
2013-01-14 04:10:00,57.4,55.4,30.10,WSW,248,0.0,0.0,93,0.00,,BKN250,0.00,VWS V14.01,2013-01-14 09:10:00,
2013-01-14 04:15:00,57.1,55.1,30.10,WSW,248,0.0,0.0,93,0.00,,BKN250,0.00,VWS V14.01,2013-01-14 09:15:00,
2013-01-14 04:20:00,56.7,55.0,30.10,WSW,248,0.0,0.0,94,0.00,,BKN250,0.00,VWS V14.01,2013-01-14 09:20:00,
2013-01-14 04:25:00,56.2,54.2,30.10,WSW,248,0.0,0.0,93,0.00,,BKN250,0.00,VWS V14.01,2013-01-14 09:25:00,
2013-01-14 04:30:00,55.7,53.7,30.09,WSW,248,0.0,0.0,93,0.00,,BKN250,0.00,VWS V14.01,2013-01-14 09:30:00,
2013-01-14 04:35:00,55.4,53.7,30.09,WSW,248,0.0,0.0,94,0.00,,BKN250,0.00,VWS V14.01,2013-01-14 09:35:00,
2013-01-14 04:40:00,55.1,53.4,30.09,WSW,248,0.0,0.0,94,0.00,,BKN250,0.00,VWS V14.01,2013-01-14 09:40:00,
2013-01-14 04:45:00,54.9,53.5,30.09,WSW,248,0.0,0.0,95,0.00,,BKN250,0.00,VWS V14.01,2013-01-14 09:45:00,
2013-01-14 04:50:00,54.8,53.4,30.09,WSW,248,0.0,0.0,95,0.00,,BKN250,0.00,VWS V14.01,2013-01-14 09:50:00,
2013-01-14 04:55:00,54.8,53.7,30.09,WSW,247,0.0,0.0,96,0.00,,BKN250,0.00,VWS V14.01,2013-01-14 09:55:00,
2013-01-14 05:00:00,54.8,53.7,30.09,WSW,248,0.0,0.0,96,0.00,,BKN250,0.00,VWS V14.01,2013-01-14 10:00:00,
2013-01-14 05:10:00,54.7,53.6,30.09,WSW,248,0.0,0.0,96,0.00,,BKN250,0.00,VWS V14.01,2013-01-14 10:10:00,
2013-01-14 05:15:00,54.6,53.5,30.09,WSW,248,0.0,0.0,96,0.00,,BKN250,0.00,VWS V14.01,2013-01-14 10:15:00,
2013-01-14 05:20:00,54.9,53.8,30.09,WSW,248,0.0,0.0,96,0.00,,BKN250,0.00,VWS V14.01,2013-01-14 10:20:00,
2013-01-14 05:25:00,55.3,54.5,30.09,WSW,247,0.0,0.0,97,0.00,,BKN250,0.00,VWS V14.01,2013-01-14 10:25:00,
2013-01-14 05:30:00,55.3,54.2,30.09,WSW,247,0.0,0.0,96,0.00,,BKN250,0.00,VWS V14.01,2013-01-14 10:30:00,
2013-01-14 05:35:00,55.7,54.9,30.09,WSW,247,0.0,0.0,97,0.00,,BKN250,0.00,VWS V14.01,2013-01-14 10:35:00,
2013-01-14 05:40:00,56.2,55.4,30.09,SE,138,0.0,0.0,97,0.00,,BKN250,0.00,VWS V14.01,2013-01-14 10:40:00,
2013-01-14 05:45:00,57.0,56.2,30.09,SE,139,0.0,1.0,97,0.00,,BKN250,0.00,VWS V14.01,2013-01-14 10:45:00,
2013-01-14 05:50:00,57.7,56.6,30.09,SE,139,0.0,0.0,96,0.00,,BKN250,0.00,VWS V14.01,2013-01-14 10:50:00,
2013-01-14 05:55:00,58.1,56.7,30.09,SE,131,0.0,2.0,95,0.00,,BKN250,0.00,VWS V14.01,2013-01-14 10:55:00,
2013-01-14 06:00:00,58.4,56.7,30.09,ESE,118,0.0,1.0,94,0.00,,BKN250,0.00,VWS V14.01,2013-01-14 11:00:00,
2013-01-14 06:10:00,58.8,56.8,30.09,East,101,0.0,1.0,93,0.00,,BKN250,0.00,VWS V14.01,2013-01-14 11:10:00,
2013-01-14 06:15:00,58.8,56.8,30.10,SE,144,0.0,1.0,93,0.00,,BKN250,0.00,VWS V14.01,2013-01-14 11:15:00,
2013-01-14 06:20:00,59.0,57.0,30.09,ESE,109,0.0,1.0,93,0.00,,BKN250,0.00,VWS V14.01,2013-01-14 11:20:00,
2013-01-14 06:25:00,59.0,57.0,30.10,ESE,109,0.0,1.0,93,0.00,,BKN250,0.00,VWS V14.01,2013-01-14 11:25:00,
2013-01-14 06:30:00,58.9,56.9,30.10,South,174,0.0,1.0,93,0.00,,BKN250,0.00,VWS V14.01,2013-01-14 11:30:00,
2013-01-14 06:40:00,59.1,56.8,30.10,SE,133,0.0,1.0,92,0.00,,BKN250,0.00,VWS V14.01,2013-01-14 11:40:00,
2013-01-14 06:45:00,59.1,56.8,30.10,SSE,158,0.0,2.0,92,0.00,,BKN250,0.00,VWS V14.01,2013-01-14 11:45:00,
2013-01-14 06:50:00,59.1,56.8,30.10,SE,130,0.0,1.0,92,0.00,,BKN250,0.00,VWS V14.01,2013-01-14 11:50:00,
2013-01-14 06:55:00,59.3,57.0,30.11,SE,129,0.0,2.0,92,0.00,,BKN250,0.00,VWS V14.01,2013-01-14 11:55:00,
2013-01-14 07:00:00,59.4,57.1,30.11,South,184,0.0,1.0,92,0.00,,BKN250,0.00,VWS V14.01,2013-01-14 12:00:00,
2013-01-14 07:10:00,59.3,57.0,30.11,ESE,106,0.0,2.0,92,0.00,,BKN250,0.00,VWS V14.01,2013-01-14 12:10:00,
2013-01-14 07:15:00,59.3,57.0,30.11,South,171,0.0,0.0,92,0.00,,BKN250,0.00,VWS V14.01,2013-01-14 12:15:00,
2013-01-14 07:20:00,59.4,56.8,30.11,SW,217,0.0,0.0,91,0.00,,BKN250,0.00,VWS V14.01,2013-01-14 12:20:00,
2013-01-14 07:25:00,59.5,56.9,30.11,SSE,147,0.0,1.0,91,0.00,,BKN250,0.00,VWS V14.01,2013-01-14 12:25:00,
2013-01-14 07:30:00,59.6,57.0,30.12,ESE,109,0.0,0.0,91,0.00,,BKN250,0.00,VWS V14.01,2013-01-14 12:30:00,
2013-01-14 07:35:00,59.6,57.0,30.12,ESE,109,0.0,0.0,91,0.00,,BKN250,0.00,VWS V14.01,2013-01-14 12:35:00,
2013-01-14 07:40:00,59.7,57.1,30.12,SW,219,0.0,0.0,91,0.00,,BKN250,0.00,VWS V14.01,2013-01-14 12:40:00,
2013-01-14 07:45:00,59.7,57.1,30.12,SW,219,0.0,0.0,91,0.00,,BKN250,0.00,VWS V14.01,2013-01-14 12:45:00,
2013-01-14 07:50:00,59.8,57.2,30.13,West,260,0.0,1.0,91,0.00,,BKN250,0.00,VWS V14.01,2013-01-14 12:50:00,
2013-01-14 07:55:00,59.8,57.2,30.13,ESE,110,0.0,1.0,91,0.00,,BKN250,0.00,VWS V14.01,2013-01-14 12:55:00,
2013-01-14 08:00:00,59.8,56.9,30.13,SSW,199,0.0,1.0,90,0.00,,BKN250,0.00,VWS V14.01,2013-01-14 13:00:00,
2013-01-14 08:10:00,59.9,57.0,30.13,SE,136,0.0,1.0,90,0.00,,BKN250,0.00,VWS V14.01,2013-01-14 13:10:00,
2013-01-14 08:15:00,59.8,56.9,30.13,East,85,0.0,1.0,90,0.00,,BKN250,0.00,VWS V14.01,2013-01-14 13:15:00,
2013-01-14 08:20:00,59.8,56.9,30.13,WSW,243,0.0,1.0,90,0.00,,BKN250,0.00,VWS V14.01,2013-01-14 13:20:00,
2013-01-14 08:25:00,59.9,57.0,30.13,ESE,117,1.0,3.0,90,0.00,,BKN250,0.00,VWS V14.01,2013-01-14 13:25:00,
2013-01-14 08:30:00,59.9,57.0,30.13,East,100,0.0,2.0,90,0.00,,BKN250,0.00,VWS V14.01,2013-01-14 13:30:00,
2013-01-14 08:35:00,60.1,57.2,30.13,ESE,117,1.0,3.0,90,0.00,,BKN250,0.00,VWS V14.01,2013-01-14 13:35:00,
2013-01-14 08:40:00,60.1,57.2,30.13,East,101,2.0,2.0,90,0.00,,BKN250,0.00,VWS V14.01,2013-01-14 13:40:00,
2013-01-14 08:45:00,60.2,57.3,30.13,East,84,0.0,4.0,90,0.00,,BKN250,0.00,VWS V14.01,2013-01-14 13:45:00,
2013-01-14 08:50:00,60.3,57.4,30.13,ESE,118,0.0,1.0,90,0.00,,BKN250,0.00,VWS V14.01,2013-01-14 13:50:00,
2013-01-14 08:55:00,60.4,57.2,30.13,South,176,0.0,3.0,89,0.00,,BKN250,0.00,VWS V14.01,2013-01-14 13:55:00,
2013-01-14 09:00:00,60.5,57.2,30.14,WSW,251,1.0,3.0,89,0.00,,BKN200,0.00,VWS V14.01,2013-01-14 14:00:00,
2013-01-14 09:10:00,60.8,57.5,30.14,ESE,106,0.0,3.0,89,0.00,,BKN200,0.00,VWS V14.01,2013-01-14 14:10:00,
2013-01-14 09:15:00,60.9,57.3,30.14,SSW,195,0.0,2.0,88,0.00,,BKN200,0.00,VWS V14.01,2013-01-14 14:15:00,
2013-01-14 09:20:00,61.1,57.5,30.14,WSW,242,0.0,1.0,88,0.00,,BKN200,0.00,VWS V14.01,2013-01-14 14:20:00,
2013-01-14 09:25:00,61.2,57.6,30.14,SSW,205,0.0,2.0,88,0.00,,BKN200,0.00,VWS V14.01,2013-01-14 14:25:00,
2013-01-14 09:30:00,61.4,57.5,30.15,SSW,199,0.0,2.0,87,0.00,,BKN200,0.00,VWS V14.01,2013-01-14 14:30:00,
2013-01-14 09:35:00,61.6,57.7,30.15,SE,134,2.0,2.0,87,0.00,,BKN200,0.00,VWS V14.01,2013-01-14 14:35:00,
2013-01-14 09:40:00,61.7,57.8,30.15,SSE,151,0.0,2.0,87,0.00,,BKN200,0.00,VWS V14.01,2013-01-14 14:40:00,
2013-01-14 09:45:00,61.8,57.9,30.15,SSW,203,2.0,2.0,87,0.00,,BKN200,0.00,VWS V14.01,2013-01-14 14:45:00,
2013-01-14 09:50:00,62.0,58.1,30.15,SW,225,0.0,2.0,87,0.00,,BKN200,0.00,VWS V14.01,2013-01-14 14:50:00,
2013-01-14 09:55:00,62.2,58.0,30.15,WSW,248,0.0,3.0,86,0.00,,BKN200,0.00,VWS V14.01,2013-01-14 14:55:00,
2013-01-14 10:00:00,62.4,58.2,30.15,SW,229,0.0,1.0,86,0.00,,BKN200,0.00,VWS V14.01,2013-01-14 15:00:00,
2013-01-14 10:10:00,62.8,58.2,30.15,South,173,0.0,1.0,85,0.00,,BKN200,0.00,VWS V14.01,2013-01-14 15:10:00,
2013-01-14 10:15:00,63.0,58.4,30.15,South,189,1.0,2.0,85,0.00,,BKN200,0.00,VWS V14.01,2013-01-14 15:15:00,
2013-01-14 10:20:00,63.2,58.6,30.15,SE,126,1.0,2.0,85,0.00,,BKN200,0.00,VWS V14.01,2013-01-14 15:20:00,
2013-01-14 10:25:00,63.3,58.7,30.15,South,177,0.0,1.0,85,0.00,,BKN200,0.00,VWS V14.01,2013-01-14 15:25:00,
2013-01-14 10:30:00,63.5,58.6,30.15,SE,143,0.0,3.0,84,0.00,,BKN200,0.00,VWS V14.01,2013-01-14 15:30:00,
2013-01-14 10:35:00,63.5,58.6,30.14,ESE,103,0.0,4.0,84,0.00,,BKN200,0.00,VWS V14.01,2013-01-14 15:35:00,
2013-01-14 10:40:00,63.7,58.8,30.14,SSE,163,0.0,2.0,84,0.00,,BKN200,0.00,VWS V14.01,2013-01-14 15:40:00,
2013-01-14 10:45:00,64.0,58.7,30.14,South,176,1.0,2.0,83,0.00,,BKN200,0.00,VWS V14.01,2013-01-14 15:45:00,
2013-01-14 10:50:00,64.2,58.9,30.14,SSE,153,0.0,3.0,83,0.00,,BKN200,0.00,VWS V14.01,2013-01-14 15:50:00,
2013-01-14 10:55:00,64.5,59.2,30.13,East,92,1.0,2.0,83,0.00,,BKN200,0.00,VWS V14.01,2013-01-14 15:55:00,
2013-01-14 11:00:00,64.9,59.3,30.13,SW,234,1.0,2.0,82,0.00,,BKN200,0.00,VWS V14.01,2013-01-14 16:00:00,
2013-01-14 11:05:00,65.2,59.6,30.13,SE,146,0.0,3.0,82,0.00,,BKN200,0.00,VWS V14.01,2013-01-14 16:05:00,
2013-01-14 11:10:00,65.5,59.5,30.13,East,84,0.0,2.0,81,0.00,,BKN200,0.00,VWS V14.01,2013-01-14 16:10:00,
2013-01-14 11:15:00,66.0,59.7,30.13,WSW,244,0.0,2.0,80,0.00,,BKN200,0.00,VWS V14.01,2013-01-14 16:15:00,
2013-01-14 11:20:00,66.3,60.0,30.13,SW,226,5.0,5.0,80,0.00,,BKN200,0.00,VWS V14.01,2013-01-14 16:20:00,
2013-01-14 11:25:00,66.5,59.8,30.12,SW,221,1.0,5.0,79,0.00,,BKN200,0.00,VWS V14.01,2013-01-14 16:25:00,
2013-01-14 11:30:00,66.7,59.6,30.12,SW,232,0.0,7.0,78,0.00,,BKN200,0.00,VWS V14.01,2013-01-14 16:30:00,
2013-01-14 11:35:00,67.0,59.9,30.11,WSW,240,2.0,4.0,78,0.00,,BKN200,0.00,VWS V14.01,2013-01-14 16:35:00,
2013-01-14 11:40:00,67.3,60.2,30.11,SSE,158,1.0,4.0,78,0.00,,BKN200,0.00,VWS V14.01,2013-01-14 16:40:00,
2013-01-14 11:45:00,67.5,60.4,30.11,SW,236,1.0,3.0,78,0.00,,BKN200,0.00,VWS V14.01,2013-01-14 16:45:00,
2013-01-14 11:50:00,67.6,60.1,30.11,WSW,244,1.0,3.0,77,0.00,,BKN200,0.00,VWS V14.01,2013-01-14 16:50:00,
2013-01-14 11:55:00,67.6,60.1,30.11,SSE,149,2.0,2.0,77,0.00,,BKN200,0.00,VWS V14.01,2013-01-14 16:55:00,
2013-01-14 12:00:00,67.5,60.0,30.10,WSW,240,0.0,4.0,77,0.00,,OVC200,0.00,VWS V14.01,2013-01-14 17:00:00,
2013-01-14 12:10:00,67.4,60.3,30.11,SW,231,1.0,2.0,78,0.00,,OVC200,0.00,VWS V14.01,2013-01-14 17:10:00,
2013-01-14 12:15:00,67.4,60.3,30.10,SSE,149,1.0,4.0,78,0.00,,OVC200,0.00,VWS V14.01,2013-01-14 17:15:00,
2013-01-14 12:20:00,67.4,60.3,30.10,SSE,167,1.0,3.0,78,0.00,,OVC200,0.00,VWS V14.01,2013-01-14 17:20:00,
2013-01-14 12:25:00,67.4,60.7,30.10,SE,133,0.0,1.0,79,0.00,,OVC200,0.00,VWS V14.01,2013-01-14 17:25:00,
2013-01-14 12:30:00,67.5,60.4,30.09,South,169,0.0,2.0,78,0.00,,OVC200,0.00,VWS V14.01,2013-01-14 17:30:00,
2013-01-14 12:35:00,67.7,60.6,30.09,South,171,0.0,2.0,78,0.00,,OVC200,0.00,VWS V14.01,2013-01-14 17:35:00,
2013-01-14 12:40:00,67.9,60.8,30.09,WSW,257,1.0,1.0,78,0.00,,OVC200,0.00,VWS V14.01,2013-01-14 17:40:00,
2013-01-14 12:45:00,68.1,61.0,30.09,West,271,0.0,1.0,78,0.00,,OVC200,0.00,VWS V14.01,2013-01-14 17:45:00,
2013-01-14 12:50:00,68.1,61.0,30.09,SSE,157,0.0,5.0,78,0.00,,OVC200,0.00,VWS V14.01,2013-01-14 17:50:00,
2013-01-14 12:55:00,68.2,61.1,30.09,NNE,32,0.0,3.0,78,0.00,,OVC200,0.00,VWS V14.01,2013-01-14 17:55:00,
2013-01-14 13:00:00,68.3,60.8,30.09,SSE,154,0.0,2.0,77,0.00,,OVC200,0.00,VWS V14.01,2013-01-14 18:00:00,
2013-01-14 13:10:00,68.6,61.1,30.09,SSW,211,0.0,3.0,77,0.00,,OVC200,0.00,VWS V14.01,2013-01-14 18:10:00,
2013-01-14 13:15:00,68.7,61.2,30.08,ESE,109,1.0,3.0,77,0.00,,OVC200,0.00,VWS V14.01,2013-01-14 18:15:00,
2013-01-14 13:20:00,68.7,61.2,30.09,SW,227,0.0,2.0,77,0.00,,OVC200,0.00,VWS V14.01,2013-01-14 18:20:00,
2013-01-14 13:25:00,68.7,61.2,30.09,WSW,239,0.0,2.0,77,0.00,,OVC200,0.00,VWS V14.01,2013-01-14 18:25:00,
2013-01-14 13:30:00,68.8,61.3,30.09,WSW,240,0.0,1.0,77,0.00,,OVC200,0.00,VWS V14.01,2013-01-14 18:30:00,
2013-01-14 13:35:00,68.8,61.3,30.09,SSW,212,0.0,1.0,77,0.00,,OVC200,0.00,VWS V14.01,2013-01-14 18:35:00,
2013-01-14 13:40:00,68.9,61.4,30.09,SSE,148,0.0,1.0,77,0.00,,OVC200,0.00,VWS V14.01,2013-01-14 18:40:00,
2013-01-14 13:45:00,69.0,61.5,30.08,SW,219,0.0,1.0,77,0.00,,OVC200,0.00,VWS V14.01,2013-01-14 18:45:00,
2013-01-14 13:50:00,69.1,61.6,30.08,WSW,244,0.0,1.0,77,0.00,,OVC200,0.00,VWS V14.01,2013-01-14 18:50:00,
2013-01-14 13:55:00,69.2,61.7,30.09,SSE,162,1.0,1.0,77,0.00,,OVC200,0.00,VWS V14.01,2013-01-14 18:55:00,
2013-01-14 14:00:00,69.2,61.7,30.08,SSE,160,0.0,1.0,77,0.00,,OVC080,0.00,VWS V14.01,2013-01-14 19:00:00,
2013-01-14 14:10:00,69.3,61.8,30.08,ESE,122,0.0,1.0,77,0.00,,OVC080,0.00,VWS V14.01,2013-01-14 19:10:00,
2013-01-14 14:15:00,69.4,61.9,30.08,ESE,122,0.0,0.0,77,0.00,,OVC080,0.00,VWS V14.01,2013-01-14 19:15:00,
2013-01-14 14:20:00,69.4,61.9,30.09,WSW,238,0.0,1.0,77,0.00,,OVC080,0.00,VWS V14.01,2013-01-14 19:20:00,
2013-01-14 14:25:00,69.3,62.5,30.08,WSW,238,0.0,0.0,79,0.00,,OVC080,0.00,VWS V14.01,2013-01-14 19:25:00,
2013-01-14 14:30:00,69.1,62.3,30.09,WSW,238,0.0,0.0,79,0.00,,OVC090,0.00,VWS V14.01,2013-01-14 19:30:00,
2013-01-14 14:35:00,69.1,62.7,30.09,WSW,237,0.0,0.0,80,0.00,,OVC090,0.00,VWS V14.01,2013-01-14 19:35:00,
2013-01-14 14:40:00,69.0,62.6,30.09,WSW,237,0.0,0.0,80,0.00,,OVC090,0.00,VWS V14.01,2013-01-14 19:40:00,
2013-01-14 14:45:00,69.0,62.2,30.09,WSW,237,0.0,0.0,79,0.00,,OVC090,0.00,VWS V14.01,2013-01-14 19:45:00,
2013-01-14 14:50:00,69.0,62.2,30.09,WSW,237,0.0,0.0,79,0.00,,OVC090,0.00,VWS V14.01,2013-01-14 19:50:00,
2013-01-14 14:55:00,69.1,62.7,30.09,WSW,237,0.0,0.0,80,0.00,,OVC090,0.00,VWS V14.01,2013-01-14 19:55:00,
2013-01-14 15:00:00,69.1,62.7,30.10,WSW,237,0.0,0.0,80,0.00,,OVC090,0.00,VWS V14.01,2013-01-14 20:00:00,
2013-01-14 15:10:00,68.8,62.7,30.09,WSW,237,0.0,0.0,81,0.00,,OVC090,0.00,VWS V14.01,2013-01-14 20:10:00,
2013-01-14 15:15:00,68.7,63.0,30.09,WSW,237,0.0,0.0,82,0.00,,OVC090,0.00,VWS V14.01,2013-01-14 20:15:00,
2013-01-14 15:20:00,68.6,62.9,30.09,WSW,237,0.0,0.0,82,0.00,,OVC090,0.00,VWS V14.01,2013-01-14 20:20:00,
2013-01-14 15:25:00,68.6,63.2,30.09,WSW,237,0.0,0.0,83,0.00,,OVC090,0.00,VWS V14.01,2013-01-14 20:25:00,
2013-01-14 15:30:00,68.6,63.2,30.09,WSW,237,0.0,0.0,83,0.00,,OVC090,0.00,VWS V14.01,2013-01-14 20:30:00,
2013-01-14 15:35:00,68.5,63.1,30.10,WSW,237,0.0,0.0,83,0.00,,OVC090,0.00,VWS V14.01,2013-01-14 20:35:00,
2013-01-14 15:40:00,68.5,63.1,30.10,WSW,237,0.0,0.0,83,0.00,,OVC090,0.00,VWS V14.01,2013-01-14 20:40:00,
2013-01-14 15:45:00,68.5,63.1,30.10,WSW,237,0.0,0.0,83,0.00,,OVC090,0.00,VWS V14.01,2013-01-14 20:45:00,
2013-01-14 15:50:00,68.3,63.3,30.10,WSW,237,0.0,0.0,84,0.00,,OVC090,0.00,VWS V14.01,2013-01-14 20:50:00,
2013-01-14 15:55:00,68.1,63.4,30.10,WSW,237,0.0,0.0,85,0.00,,OVC090,0.00,VWS V14.01,2013-01-14 20:55:00,
2013-01-14 16:00:00,68.0,63.3,30.10,WSW,237,0.0,0.0,85,0.00,,OVC200,0.00,VWS V14.01,2013-01-14 21:00:00,
2013-01-14 16:05:00,67.9,63.2,30.10,WSW,237,0.0,0.0,85,0.00,,OVC200,0.00,VWS V14.01,2013-01-14 21:05:00,
2013-01-14 16:10:00,67.7,63.0,30.10,WSW,237,0.0,0.0,85,0.00,,OVC200,0.00,VWS V14.01,2013-01-14 21:10:00,
2013-01-14 16:15:00,67.6,62.9,30.10,ESE,118,1.0,1.0,85,0.00,,OVC200,0.00,VWS V14.01,2013-01-14 21:15:00,
2013-01-14 16:20:00,67.7,63.4,30.10,SE,126,0.0,1.0,86,0.00,,OVC200,0.00,VWS V14.01,2013-01-14 21:20:00,
2013-01-14 16:25:00,67.5,63.2,30.10,SE,127,0.0,0.0,86,0.00,,OVC200,0.00,VWS V14.01,2013-01-14 21:25:00,
2013-01-14 16:30:00,67.3,63.0,30.10,SE,127,0.0,0.0,86,0.00,,OVC200,0.00,VWS V14.01,2013-01-14 21:30:00,
2013-01-14 16:35:00,67.2,63.2,30.10,SE,126,0.0,0.0,87,0.00,,OVC200,0.00,VWS V14.01,2013-01-14 21:35:00,
2013-01-14 16:40:00,66.9,62.9,30.10,SE,127,0.0,0.0,87,0.00,,OVC200,0.00,VWS V14.01,2013-01-14 21:40:00,
2013-01-14 16:45:00,66.7,63.0,30.11,SE,126,0.0,0.0,88,0.00,,OVC200,0.00,VWS V14.01,2013-01-14 21:45:00,
2013-01-14 16:50:00,66.6,62.9,30.11,SE,127,0.0,0.0,88,0.00,,OVC200,0.00,VWS V14.01,2013-01-14 21:50:00,
2013-01-14 16:55:00,66.4,63.1,30.11,SE,126,0.0,0.0,89,0.00,,OVC200,0.00,VWS V14.01,2013-01-14 21:55:00,
2013-01-14 17:00:00,66.3,63.0,30.11,SE,127,0.0,0.0,89,0.00,,OVC050,0.00,VWS V14.01,2013-01-14 22:00:00,
2013-01-14 17:05:00,66.3,63.0,30.11,SE,127,0.0,0.0,89,0.00,,OVC050,0.00,VWS V14.01,2013-01-14 22:05:00,
2013-01-14 17:10:00,66.1,62.8,30.11,SE,127,0.0,0.0,89,0.00,,OVC050,0.00,VWS V14.01,2013-01-14 22:10:00,
2013-01-14 17:15:00,65.8,62.8,30.11,SE,127,0.0,0.0,90,0.00,,OVC050,0.00,VWS V14.01,2013-01-14 22:15:00,
2013-01-14 17:20:00,65.7,63.0,30.11,SE,127,0.0,0.0,91,0.00,,OVC050,0.00,VWS V14.01,2013-01-14 22:20:00,
2013-01-14 17:25:00,65.5,62.8,30.11,SE,127,0.0,0.0,91,0.00,,OVC050,0.00,VWS V14.01,2013-01-14 22:25:00,
2013-01-14 17:30:00,65.4,62.7,30.11,SE,126,0.0,0.0,91,0.00,,OVC050,0.00,VWS V14.01,2013-01-14 22:30:00,
2013-01-14 17:35:00,65.3,62.6,30.11,SE,127,0.0,0.0,91,0.00,,OVC050,0.00,VWS V14.01,2013-01-14 22:35:00,
2013-01-14 17:40:00,65.2,62.5,30.12,SE,127,0.0,0.0,91,0.00,,OVC050,0.00,VWS V14.01,2013-01-14 22:40:00,
2013-01-14 17:45:00,65.2,62.5,30.12,SE,126,0.0,0.0,91,0.00,,OVC050,0.00,VWS V14.01,2013-01-14 22:45:00,
2013-01-14 17:50:00,65.1,62.7,30.12,SE,127,0.0,0.0,92,0.00,,OVC050,0.00,VWS V14.01,2013-01-14 22:50:00,
2013-01-14 17:55:00,65.0,62.6,30.12,SE,126,0.0,0.0,92,0.00,,OVC050,0.00,VWS V14.01,2013-01-14 22:55:00,
2013-01-14 18:00:00,64.9,62.5,30.12,SE,126,0.0,0.0,92,0.00,,OVC050,0.00,VWS V14.01,2013-01-14 23:00:00,
2013-01-14 18:10:00,64.7,62.6,30.13,SE,127,0.0,0.0,93,0.01,,OVC050,0.01,VWS V14.01,2013-01-14 23:10:00,
2013-01-14 18:15:00,64.4,62.3,30.13,SE,127,0.0,0.0,93,0.02,,OVC050,0.02,VWS V14.01,2013-01-14 23:15:00,
2013-01-14 18:20:00,64.2,62.4,30.12,East,101,0.0,1.0,94,0.02,,OVC050,0.02,VWS V14.01,2013-01-14 23:20:00,
2013-01-14 18:25:00,63.9,62.1,30.12,East,101,0.0,0.0,94,0.02,,OVC050,0.02,VWS V14.01,2013-01-14 23:25:00,
2013-01-14 18:30:00,63.7,62.2,30.12,ENE,78,0.0,1.0,95,0.02,,OVC050,0.02,VWS V14.01,2013-01-14 23:30:00,
2013-01-14 18:35:00,63.8,62.3,30.12,ENE,78,0.0,0.0,95,0.02,,OVC050,0.02,VWS V14.01,2013-01-14 23:35:00,
2013-01-14 18:40:00,63.7,62.2,30.12,ENE,78,0.0,0.0,95,0.02,,OVC050,0.02,VWS V14.01,2013-01-14 23:40:00,
2013-01-14 18:45:00,63.6,62.2,30.12,ENE,78,0.0,0.0,95,0.02,,OVC050,0.02,VWS V14.01,2013-01-14 23:45:00,
2013-01-14 18:50:00,63.6,62.4,30.12,ENE,78,0.0,0.0,96,0.02,,OVC050,0.02,VWS V14.01,2013-01-14 23:50:00,
2013-01-14 18:55:00,63.5,62.3,30.12,ENE,78,0.0,0.0,96,0.02,,OVC050,0.02,VWS V14.01,2013-01-14 23:55:00,
2013-01-14 19:00:00,63.3,62.1,30.12,ENE,78,0.0,1.0,96,0.02,,OVC050,0.02,VWS V14.01,2013-01-15 00:00:00,
2013-01-14 19:10:00,63.3,62.1,30.12,East,95,0.0,0.0,96,0.02,,OVC050,0.02,VWS V14.01,2013-01-15 00:10:00,
2013-01-14 19:15:00,63.4,62.2,30.12,East,95,0.0,0.0,96,0.01,,OVC050,0.02,VWS V14.01,2013-01-15 00:15:00,
2013-01-14 19:20:00,63.3,62.1,30.12,East,95,0.0,0.0,96,0.00,,OVC050,0.02,VWS V14.01,2013-01-15 00:20:00,
2013-01-14 19:25:00,63.2,62.0,30.12,East,95,0.0,0.0,96,0.00,,OVC050,0.02,VWS V14.01,2013-01-15 00:25:00,
2013-01-14 19:30:00,63.2,62.0,30.11,East,95,0.0,0.0,96,0.00,,OVC050,0.02,VWS V14.01,2013-01-15 00:30:00,
2013-01-14 19:35:00,63.2,62.0,30.11,East,95,0.0,0.0,96,0.00,,OVC050,0.02,VWS V14.01,2013-01-15 00:35:00,
2013-01-14 19:40:00,63.2,62.0,30.12,East,95,0.0,0.0,96,0.00,,OVC050,0.02,VWS V14.01,2013-01-15 00:40:00,
2013-01-14 19:45:00,63.2,62.3,30.12,East,95,0.0,0.0,97,0.00,,OVC050,0.02,VWS V14.01,2013-01-15 00:45:00,
2013-01-14 19:50:00,63.2,62.3,30.12,East,95,0.0,0.0,97,0.00,,OVC050,0.02,VWS V14.01,2013-01-15 00:50:00,
2013-01-14 19:55:00,63.2,62.3,30.12,East,95,0.0,0.0,97,0.00,,OVC050,0.02,VWS V14.01,2013-01-15 00:55:00,
2013-01-14 20:00:00,63.1,62.2,30.12,East,95,0.0,0.0,97,0.00,,OVC070,0.02,VWS V14.01,2013-01-15 01:00:00,
2013-01-14 20:10:00,62.7,61.5,30.11,East,95,0.0,0.0,96,0.00,,OVC070,0.02,VWS V14.01,2013-01-15 01:10:00,
2013-01-14 20:15:00,62.8,61.9,30.11,East,95,0.0,0.0,97,0.00,,OVC070,0.02,VWS V14.01,2013-01-15 01:15:00,
2013-01-14 20:20:00,62.8,61.9,30.11,East,95,0.0,0.0,97,0.00,,OVC070,0.02,VWS V14.01,2013-01-15 01:20:00,
2013-01-14 20:25:00,62.8,61.9,30.11,East,95,0.0,0.0,97,0.00,,OVC070,0.02,VWS V14.01,2013-01-15 01:25:00,
2013-01-14 20:30:00,62.7,61.8,30.11,East,95,0.0,0.0,97,0.00,,OVC070,0.02,VWS V14.01,2013-01-15 01:30:00,
2013-01-14 20:35:00,62.6,61.7,30.10,East,95,0.0,0.0,97,0.00,,OVC070,0.02,VWS V14.01,2013-01-15 01:35:00,
2013-01-14 20:40:00,62.4,61.5,30.10,East,95,0.0,0.0,97,0.00,,OVC070,0.02,VWS V14.01,2013-01-15 01:40:00,
2013-01-14 20:45:00,62.3,61.4,30.10,East,95,0.0,0.0,97,0.00,,OVC070,0.02,VWS V14.01,2013-01-15 01:45:00,
2013-01-14 20:50:00,62.3,61.4,30.10,East,95,0.0,0.0,97,0.00,,OVC070,0.02,VWS V14.01,2013-01-15 01:50:00,
2013-01-14 20:55:00,62.3,61.4,30.10,East,95,0.0,0.0,97,0.00,,OVC070,0.02,VWS V14.01,2013-01-15 01:55:00,
2013-01-14 21:00:00,62.3,61.4,30.10,East,95,0.0,0.0,97,0.00,,OVC070,0.02,VWS V14.01,2013-01-15 02:00:00,
2013-01-14 21:05:00,62.1,61.2,30.10,East,95,0.0,0.0,97,0.00,,OVC070,0.02,VWS V14.01,2013-01-15 02:05:00,
2013-01-14 21:10:00,62.1,61.2,30.10,East,95,0.0,0.0,97,0.00,,OVC070,0.02,VWS V14.01,2013-01-15 02:10:00,
2013-01-14 21:15:00,62.1,61.2,30.10,East,95,0.0,0.0,97,0.00,,OVC070,0.02,VWS V14.01,2013-01-15 02:15:00,
2013-01-14 21:20:00,62.1,61.2,30.10,East,95,0.0,0.0,97,0.00,,OVC070,0.02,VWS V14.01,2013-01-15 02:20:00,
2013-01-14 21:25:00,62.0,61.1,30.10,East,95,0.0,0.0,97,0.00,,OVC070,0.02,VWS V14.01,2013-01-15 02:25:00,
2013-01-14 21:30:00,61.8,60.9,30.10,East,95,0.0,0.0,97,0.00,,OVC070,0.02,VWS V14.01,2013-01-15 02:30:00,
2013-01-14 21:35:00,61.8,60.9,30.10,East,95,0.0,0.0,97,0.00,,OVC070,0.02,VWS V14.01,2013-01-15 02:35:00,
2013-01-14 21:40:00,61.8,60.9,30.10,East,95,0.0,0.0,97,0.00,,OVC070,0.02,VWS V14.01,2013-01-15 02:40:00,
2013-01-14 21:45:00,61.6,60.7,30.10,East,95,0.0,0.0,97,0.00,,OVC070,0.02,VWS V14.01,2013-01-15 02:45:00,
2013-01-14 21:50:00,61.6,60.7,30.10,East,95,0.0,0.0,97,0.00,,OVC070,0.02,VWS V14.01,2013-01-15 02:50:00,
2013-01-14 22:00:00,61.4,60.5,30.10,East,95,0.0,0.0,97,0.00,,BKN200,0.02,VWS V14.01,2013-01-15 03:00:00,
2013-01-14 22:05:00,61.4,60.5,30.10,East,95,0.0,0.0,97,0.00,,BKN200,0.02,VWS V14.01,2013-01-15 03:05:00,
2013-01-14 22:10:00,61.3,60.4,30.10,East,95,0.0,0.0,97,0.00,,BKN200,0.02,VWS V14.01,2013-01-15 03:10:00,
2013-01-14 22:15:00,61.2,60.3,30.10,East,95,0.0,0.0,97,0.00,,BKN200,0.02,VWS V14.01,2013-01-15 03:15:00,
2013-01-14 22:20:00,61.1,60.2,30.10,East,95,0.0,0.0,97,0.00,,BKN200,0.02,VWS V14.01,2013-01-15 03:20:00,
2013-01-14 22:25:00,61.0,60.2,30.10,East,95,0.0,0.0,97,0.00,,BKN200,0.02,VWS V14.01,2013-01-15 03:25:00,
2013-01-14 22:30:00,60.9,60.0,30.10,East,95,0.0,0.0,97,0.00,,BKN200,0.02,VWS V14.01,2013-01-15 03:30:00,
2013-01-14 22:35:00,60.9,60.0,30.10,East,95,0.0,0.0,97,0.00,,BKN200,0.02,VWS V14.01,2013-01-15 03:35:00,
2013-01-14 22:40:00,60.9,60.0,30.11,East,95,0.0,0.0,97,0.00,,BKN200,0.02,VWS V14.01,2013-01-15 03:40:00,
2013-01-14 22:45:00,60.7,59.8,30.10,East,95,0.0,0.0,97,0.00,,BKN200,0.02,VWS V14.01,2013-01-15 03:45:00,
2013-01-14 22:50:00,60.5,59.7,30.10,East,95,0.0,0.0,97,0.00,,BKN200,0.02,VWS V14.01,2013-01-15 03:50:00,
2013-01-14 22:55:00,60.4,59.5,30.10,East,95,0.0,0.0,97,0.00,,BKN200,0.02,VWS V14.01,2013-01-15 03:55:00,
2013-01-14 23:05:00,60.1,59.2,30.11,East,95,0.0,0.0,97,0.00,,BKN200,0.02,VWS V14.01,2013-01-15 04:05:00,
2013-01-14 23:15:00,59.6,58.8,30.11,East,95,0.0,0.0,97,0.00,,BKN200,0.02,VWS V14.01,2013-01-15 04:15:00,
2013-01-14 23:20:00,59.4,58.5,30.11,East,95,0.0,0.0,97,0.00,,BKN200,0.02,VWS V14.01,2013-01-15 04:20:00,
2013-01-14 23:25:00,59.2,58.3,30.11,East,95,0.0,0.0,97,0.00,,BKN200,0.02,VWS V14.01,2013-01-15 04:25:00,
2013-01-14 23:30:00,59.1,58.2,30.11,East,95,0.0,0.0,97,0.00,,BKN200,0.02,VWS V14.01,2013-01-15 04:30:00,
2013-01-14 23:35:00,59.1,58.2,30.11,East,95,0.0,0.0,97,0.00,,BKN200,0.02,VWS V14.01,2013-01-15 04:35:00,
2013-01-14 23:40:00,59.2,58.3,30.11,North,4,0.0,0.0,97,0.00,,BKN200,0.02,VWS V14.01,2013-01-15 04:40:00,
2013-01-14 23:45:00,60.6,60.0,30.12,NW,314,0.0,2.0,98,0.00,,BKN200,0.02,VWS V14.01,2013-01-15 04:45:00,
2013-01-14 23:50:00,61.4,60.8,30.12,NNW,327,0.0,2.0,98,0.00,,BKN200,0.02,VWS V14.01,2013-01-15 04:50:00,